.
WxDataArchive / Data Records for 2015-05-14
2015-05-13 May 2015 2015-05-15

Data Records for Thursday, 14 May 2015

Time	Temp	Chill	HIndex	Humid	Dewpt	 Wind 	HiWind	WindDir	Rain 	Barom
-----	----	-----	------	-----	-----	------	------	-------	-----	-----
00:00	48.9	48.9	48.9	74	41.0	0	2	68	0.00	30.427 
00:05	48.9	48.9	48.9	74	41.0	1	3	68	0.00	30.427 
00:10	48.8	48.8	48.8	74	40.9	1	4	68	0.00	30.427 
00:15	48.6	48.6	48.6	74	40.7	0	2	68	0.00	30.425 
00:20	48.5	48.5	48.5	75	40.9	1	3	68	0.00	30.425 
00:25	48.5	48.5	48.5	75	40.9	1	3	68	0.00	30.425 
00:30	48.3	48.3	48.3	75	40.7	1	3	68	0.00	30.425 
00:35	48.2	48.2	48.2	76	41.0	1	3	68	0.00	30.425 
00:40	48.0	48.0	48.0	76	40.8	1	3	68	0.00	30.425 
00:45	47.9	47.9	47.9	76	40.7	0	3	68	0.00	30.425 
00:50	47.7	47.7	47.7	76	40.5	0	2	68	0.00	30.425 
00:55	47.6	47.6	47.6	77	40.8	0	2	68	0.00	30.425 
01:00	47.4	47.4	47.4	77	40.6	0	1	68	0.00	30.424 
01:05	47.3	47.3	47.3	77	40.5	0	2	68	0.00	30.424 
01:10	47.1	47.1	47.1	77	40.3	1	2	68	0.00	30.424 
01:15	47.1	47.1	47.1	77	40.3	0	2	68	0.00	30.414 
01:20	47.0	47.0	47.0	77	40.2	1	3	68	0.00	30.414 
01:25	46.8	46.8	46.8	78	40.3	1	4	90	0.00	30.414 
01:30	46.8	46.8	46.8	78	40.3	0	2	90	0.00	30.409 
01:35	46.7	46.7	46.7	78	40.2	0	2	90	0.00	30.409 
01:40	46.5	46.5	46.5	78	40.0	0	3	90	0.00	30.409 
01:45	46.5	46.5	46.5	78	40.0	0	2	90	0.00	30.406 
01:50	46.4	46.4	46.4	78	39.9	0	2	90	0.00	30.406 
01:55	46.2	46.2	46.2	78	39.7	0	2	90	0.00	30.406 
02:00	46.2	46.2	46.2	78	39.7	0	1	90	0.00	30.396 
02:05	46.1	46.1	46.1	79	40.0	0	2	90	0.00	30.396 
02:10	46.0	46.0	46.0	79	39.9	0	1	90	0.00	30.396 
02:15	45.8	45.8	45.8	79	39.7	0	1	90	0.00	30.393 
02:20	45.8	45.8	45.8	80	40.0	0	1	90	0.00	30.393 
02:25	45.7	45.7	45.7	80	39.9	0	2	90	0.00	30.393 
02:30	45.5	45.5	45.5	80	39.7	0	2	90	0.00	30.381 
02:35	45.5	45.5	45.5	80	39.7	0	2	90	0.00	30.381 
02:40	45.4	45.4	45.4	81	39.9	0	1	90	0.00	30.381 
02:45	45.4	45.4	45.4	81	39.9	0	2	90	0.00	30.380 
02:50	45.2	45.2	45.2	81	39.7	0	2	90	0.00	30.380 
02:55	45.2	45.2	45.2	81	39.7	0	1	90	0.00	30.380 
03:00	45.1	45.1	45.1	81	39.6	0	0	---	0.00	30.380 
03:05	44.9	44.9	44.9	81	39.4	0	0	---	0.00	30.380 
03:10	44.8	44.8	44.8	82	39.6	0	0	---	0.00	30.380 
03:15	44.6	44.6	44.6	82	39.4	0	1	90	0.00	30.379 
03:20	44.5	44.5	44.5	82	39.4	0	0	---	0.00	30.379 
03:25	44.5	44.5	44.5	82	39.4	0	0	---	0.00	30.379 
03:30	44.3	44.3	44.3	82	39.2	0	0	---	0.00	30.378 
03:35	44.2	44.2	44.2	82	39.1	0	0	---	0.00	30.378 
03:40	44.1	44.1	44.1	82	39.0	0	0	---	0.00	30.378 
03:45	44.1	44.1	44.1	83	39.3	0	0	---	0.00	30.381 
03:50	43.9	43.9	43.9	83	39.1	0	0	---	0.00	30.381 
03:55	43.8	43.8	43.8	83	39.0	0	0	---	0.00	30.381 
04:00	43.6	43.6	43.6	84	39.1	0	0	---	0.00	30.381 
04:05	43.3	43.3	43.3	84	38.8	0	0	---	0.00	30.381 
04:10	43.2	43.2	43.2	84	38.7	0	0	---	0.00	30.381 
04:15	43.1	43.1	43.1	84	38.6	0	0	---	0.00	30.380 
04:20	43.1	43.1	43.1	85	38.9	0	0	---	0.00	30.380 
04:25	42.8	42.8	42.8	85	38.6	0	0	---	0.00	30.380 
04:30	42.8	42.8	42.8	85	38.6	0	0	---	0.00	30.377 
04:35	42.6	42.6	42.6	85	38.4	0	0	---	0.00	30.377 
04:40	42.5	42.5	42.5	86	38.6	0	0	---	0.00	30.377 
04:45	42.3	42.3	42.3	86	38.4	0	0	---	0.00	30.380 
04:50	42.3	42.3	42.3	86	38.4	0	0	---	0.00	30.380 
04:55	42.2	42.2	42.2	86	38.3	0	0	---	0.00	30.380 
05:00	42.1	42.1	42.1	87	38.5	0	0	---	0.00	30.381 
05:05	42.1	42.1	42.1	87	38.5	0	0	---	0.00	30.381 
05:10	42.1	42.1	42.1	87	38.5	0	0	---	0.00	30.381 
05:15	41.9	41.9	41.9	87	38.3	0	0	---	0.00	30.381 
05:20	41.8	41.8	41.8	87	38.2	0	0	---	0.00	30.381 
05:25	41.8	41.8	41.8	88	38.5	0	0	---	0.00	30.381 
05:30	41.6	41.6	41.6	88	38.3	0	0	---	0.00	30.381 
05:35	41.6	41.6	41.6	88	38.3	0	0	---	0.00	30.381 
05:40	41.6	41.6	41.6	88	38.3	0	0	---	0.00	30.381 
05:45	41.5	41.5	41.5	88	38.2	0	0	---	0.00	30.382 
05:50	41.5	41.5	41.5	88	38.2	0	0	---	0.00	30.382 
05:55	41.5	41.5	41.5	88	38.2	0	0	---	0.00	30.382 
06:00	41.3	41.3	41.3	88	38.0	0	0	---	0.00	30.383 
06:05	41.3	41.3	41.3	88	38.0	0	0	---	0.00	30.383 
06:10	41.2	41.2	41.2	89	38.2	0	0	---	0.00	30.383 
06:15	41.2	41.2	41.2	89	38.2	0	0	---	0.00	30.384 
06:20	41.1	41.1	41.1	89	38.1	0	0	---	0.00	30.384 
06:25	41.1	41.1	41.1	89	38.1	0	0	---	0.00	30.384 
06:30	41.1	41.1	41.1	89	38.1	0	0	---	0.00	30.384 
06:35	41.2	41.2	41.2	90	38.5	0	1	90	0.00	30.384 
06:40	41.5	41.5	41.5	90	38.8	0	1	90	0.00	30.384 
06:45	41.6	41.6	41.6	90	38.9	0	1	90	0.00	30.384 
06:50	41.8	41.8	41.8	89	38.8	0	2	90	0.00	30.384 
06:55	41.9	41.9	41.9	89	38.9	0	2	90	0.00	30.384 
07:00	42.1	42.1	42.1	89	39.1	0	1	90	0.00	30.385 
07:05	42.2	42.2	42.2	88	38.9	0	2	90	0.00	30.385 
07:10	42.2	42.2	42.2	88	38.9	0	1	90	0.00	30.385 
07:15	42.2	42.2	42.2	88	38.9	0	1	90	0.00	30.396 
07:20	42.2	42.2	42.2	88	38.9	0	1	90	0.00	30.396 
07:25	42.3	42.3	42.3	87	38.7	0	1	90	0.00	30.396 
07:30	42.3	42.3	42.3	87	38.7	0	1	68	0.00	30.402 
07:35	42.5	42.5	42.5	87	38.9	0	0	---	0.00	30.402 
07:40	42.8	42.8	42.8	87	39.2	0	1	68	0.00	30.402 
07:45	43.3	43.3	43.3	86	39.4	0	1	68	0.00	30.416 
07:50	44.1	44.1	44.1	85	39.9	0	2	68	0.00	30.416 
07:55	44.9	44.9	44.9	84	40.4	0	3	68	0.00	30.416 
08:00	45.7	45.7	45.7	82	40.5	0	2	68	0.00	30.413 
08:05	46.7	46.7	46.7	81	41.2	0	2	68	0.00	30.413 
08:10	47.3	47.3	47.3	78	40.8	0	2	68	0.00	30.413 
08:15	47.9	47.9	47.9	77	41.0	0	3	68	0.00	30.421 
08:20	48.3	48.3	48.3	76	41.1	0	3	68	0.00	30.421 
08:25	48.5	48.5	48.5	73	40.2	1	3	68	0.00	30.421 
08:30	48.6	48.6	48.6	72	40.0	2	5	68	0.00	30.417 
08:35	48.9	48.9	48.9	71	39.9	1	5	68	0.00	30.417 
08:40	49.5	49.5	49.5	71	40.5	1	4	68	0.00	30.417 
08:45	49.9	49.9	49.9	69	40.1	2	4	68	0.00	30.417 
08:50	50.1	50.1	50.1	68	40.0	2	5	68	0.00	30.417 
08:55	50.1	50.1	50.1	68	40.0	3	6	90	0.00	30.417 
09:00	50.2	50.2	50.2	68	40.1	2	5	90	0.00	30.411 
09:05	50.4	50.4	50.4	66	39.5	2	5	90	0.00	30.411 
09:10	50.7	50.7	50.7	67	40.1	2	5	90	0.00	30.411 
09:15	51.0	51.0	51.0	66	40.0	3	7	90	0.00	30.407 
09:20	51.3	51.3	51.3	66	40.3	2	6	90	0.00	30.407 
09:25	52.0	52.0	52.0	63	39.8	2	6	90	0.00	30.407 
09:30	52.3	52.3	52.3	59	38.4	3	6	90	0.00	30.398 
09:35	52.8	52.8	52.8	58	38.4	1	4	90	0.00	30.398 
09:40	53.1	53.1	53.1	54	36.9	3	10	90	0.00	30.398 
09:45	53.2	53.2	53.2	52	36.0	3	8	90	0.00	30.399 
09:50	53.1	53.1	53.1	53	36.4	2	6	90	0.00	30.399 
09:55	53.5	53.5	53.5	53	36.8	2	7	68	0.00	30.399 
10:00	53.9	53.9	53.9	50	35.7	3	7	90	0.00	30.399 
10:05	54.1	54.1	54.1	50	35.9	2	5	90	0.00	30.399 
10:10	54.2	54.2	54.2	45	33.3	5	11	90	0.00	30.399 
10:15	54.4	54.4	54.4	46	34.1	3	7	112	0.00	30.399 
10:20	54.1	54.1	54.1	46	33.8	3	7	90	0.00	30.399 
10:25	54.1	54.1	54.1	44	32.7	2	7	112	0.00	30.399 
10:30	54.4	54.4	54.4	46	34.1	3	7	112	0.00	30.397 
10:35	54.8	54.8	54.8	43	32.7	3	10	90	0.00	30.397 
10:40	54.8	54.8	54.8	44	33.3	3	7	90	0.00	30.397 
10:45	55.1	55.1	55.1	44	33.6	2	6	112	0.00	30.397 
10:50	55.7	55.7	55.7	45	34.7	2	6	112	0.00	30.397 
10:55	55.7	55.7	55.7	44	34.1	3	7	90	0.00	30.397 
11:00	55.6	55.6	55.6	45	34.6	3	9	90	0.00	30.385 
11:05	55.9	55.9	55.9	44	34.3	3	7	90	0.00	30.385 
11:10	56.3	56.3	56.3	43	34.1	2	7	90	0.00	30.385 
11:15	56.9	56.9	56.9	43	34.6	2	6	90	0.00	30.386 
11:20	56.5	56.5	56.5	43	34.3	2	7	68	0.00	30.386 
11:25	56.2	56.2	56.2	42	33.4	1	6	90	0.00	30.386 
11:30	55.7	55.7	55.7	44	34.1	3	6	112	0.00	30.382 
11:35	55.7	55.7	55.7	48	36.3	3	7	68	0.00	30.382 
11:40	56.0	56.0	56.0	46	35.5	2	4	68	0.00	30.382 
11:45	56.9	56.9	56.9	49	37.9	2	7	68	0.00	30.379 
11:50	57.6	57.6	57.6	48	38.1	2	6	68	0.00	30.379 
11:55	58.0	58.0	58.0	46	37.3	2	7	90	0.00	30.379 
12:00	57.8	57.8	57.8	45	36.6	2	5	90	0.00	30.372 
12:05	57.5	57.5	57.5	45	36.3	2	4	45	0.00	30.372 
12:10	57.0	57.0	57.0	45	35.9	2	4	68	0.00	30.372 
12:15	57.0	57.0	57.0	45	35.9	2	6	90	0.00	30.371 
12:20	57.2	57.2	57.2	44	35.5	1	3	90	0.00	30.371 
12:25	57.3	57.3	57.3	47	37.2	1	4	90	0.00	30.371 
12:30	57.5	57.5	57.5	43	35.2	2	6	68	0.00	30.367 
12:35	57.8	57.8	57.8	44	36.0	1	3	90	0.00	30.367 
12:40	58.0	58.0	58.0	45	36.8	2	6	90	0.00	30.367 
12:45	58.1	58.1	58.1	46	37.4	2	5	90	0.00	30.366 
12:50	58.0	58.0	58.0	45	36.8	3	6	90	0.00	30.366 
12:55	57.8	57.8	57.8	46	37.2	2	5	90	0.00	30.366 
13:00	57.8	57.8	57.8	48	38.2	2	7	90	0.00	30.351 
13:05	58.1	58.1	58.1	47	38.0	2	6	112	0.00	30.351 
13:10	58.1	58.1	58.1	46	37.4	3	10	90	0.00	30.351 
13:15	58.3	58.3	58.3	47	38.2	1	6	112	0.00	30.345 
13:20	58.3	58.3	58.3	45	37.1	2	6	112	0.00	30.345 
13:25	58.3	58.3	58.3	45	37.1	1	5	90	0.00	30.345 
13:30	58.4	58.4	58.4	46	37.7	2	4	90	0.00	30.338 
13:35	58.7	58.7	58.7	46	38.0	2	4	112	0.00	30.338 
13:40	58.9	58.9	58.9	46	38.2	2	7	112	0.00	30.338 
13:45	59.2	59.2	59.2	47	39.0	2	6	90	0.00	30.322 
13:50	59.5	59.5	59.5	46	38.7	1	6	90	0.00	30.322 
13:55	59.9	59.9	59.9	45	38.5	1	4	90	0.00	30.322 
14:00	60.2	60.2	60.2	46	39.3	2	6	90	0.00	30.316 
14:05	60.2	60.2	60.2	44	38.2	3	7	90	0.00	30.316 
14:10	60.4	60.4	60.4	44	38.4	2	5	112	0.00	30.316 
14:15	60.5	60.5	60.5	43	37.9	2	6	90	0.00	30.307 
14:20	60.9	60.9	60.9	41	37.0	1	4	90	0.00	30.307 
14:25	61.2	61.2	61.2	44	39.1	1	5	112	0.00	30.307 
14:30	61.0	61.0	61.0	39	35.9	2	5	68	0.00	30.301 
14:35	61.2	61.2	61.2	42	37.9	1	3	90	0.00	30.301 
14:40	61.3	61.3	61.3	42	38.0	1	5	90	0.00	30.301 
14:45	61.2	61.2	61.2	41	37.3	1	4	68	0.00	30.300 
14:50	61.2	61.2	61.2	41	37.3	1	3	225	0.00	30.300 
14:55	60.9	60.9	60.9	43	38.3	2	7	90	0.00	30.300 
15:00	60.9	60.9	60.9	44	38.8	2	7	68	0.00	30.277 
15:05	60.7	60.7	60.7	44	38.7	3	6	90	0.00	30.277 
15:10	60.7	60.7	60.7	46	39.8	2	9	68	0.00	30.277 
15:15	60.7	60.7	60.7	44	38.7	3	7	90	0.00	30.270 
15:20	60.7	60.7	60.7	46	39.8	1	4	90	0.00	30.270 
15:25	60.7	60.7	60.7	44	38.7	2	6	90	0.00	30.270 
15:30	60.9	60.9	60.9	44	38.8	1	4	90	0.00	30.271 
15:35	61.2	61.2	61.2	43	38.5	1	4	90	0.00	30.271 
15:40	61.3	61.3	61.3	44	39.2	2	6	90	0.00	30.271 
15:45	61.3	61.3	61.3	46	40.3	2	6	68	0.00	30.258 
15:50	61.3	61.3	61.3	46	40.3	2	7	112	0.00	30.258 
15:55	61.5	61.5	61.5	46	40.5	3	6	112	0.00	30.258 
16:00	61.6	61.6	61.6	45	40.0	2	4	90	0.00	30.248 
16:05	62.0	62.0	62.0	46	41.0	2	4	90	0.00	30.248 
16:10	62.0	62.0	62.0	46	41.0	2	5	90	0.00	30.248 
16:15	61.8	61.8	61.8	45	40.2	3	7	112	0.00	30.241 
16:20	61.8	61.8	61.8	45	40.2	3	9	90	0.00	30.241 
16:25	61.8	61.8	61.8	46	40.8	2	5	90	0.00	30.241 
16:30	61.8	61.8	61.8	46	40.8	2	6	68	0.00	30.231 
16:35	61.8	61.8	61.8	45	40.2	3	11	90	0.00	30.231 
16:40	61.8	61.8	61.8	45	40.2	2	5	112	0.00	30.231 
16:45	62.0	62.0	62.0	47	41.5	1	4	90	0.00	30.224 
16:50	62.0	62.0	62.0	45	40.4	2	5	90	0.00	30.224 
16:55	62.1	62.1	62.1	45	40.5	3	13	112	0.00	30.224 
17:00	62.1	62.1	62.1	45	40.5	1	4	112	0.00	30.222 
17:05	62.3	62.3	62.3	45	40.7	2	4	112	0.00	30.222 
17:10	62.4	62.4	62.4	45	40.8	2	7	90	0.00	30.222 
17:15	62.4	62.4	62.4	46	41.3	1	4	90	0.00	30.226 
17:20	62.4	62.4	62.4	46	41.3	2	5	90	0.00	30.226 
17:25	62.4	62.4	62.4	45	40.8	2	6	68	0.00	30.226 
17:30	62.4	62.4	62.4	46	41.3	2	5	90	0.00	30.220 
17:35	62.4	62.4	62.4	45	40.8	1	3	90	0.00	30.220 
17:40	62.6	62.6	62.6	46	41.5	1	3	90	0.00	30.220 
17:45	62.6	62.6	62.6	45	41.0	2	6	90	0.00	30.222 
17:50	62.6	62.6	62.6	46	41.5	1	6	90	0.00	30.222 
17:55	62.6	62.6	62.6	44	40.4	1	4	90	0.00	30.222 
18:00	62.7	62.7	62.7	43	39.9	1	4	90	0.00	30.222 
18:05	62.7	62.7	62.7	44	40.5	0	2	90	0.00	30.222 
18:10	62.9	62.9	62.9	43	40.1	1	4	90	0.00	30.222 
18:15	62.9	62.9	62.9	43	40.1	1	3	68	0.00	30.216 
18:20	62.9	62.9	62.9	41	38.8	1	4	68	0.00	30.216 
18:25	62.9	62.9	62.9	42	39.5	0	3	68	0.00	30.216 
18:30	62.9	62.9	62.9	41	38.8	1	7	68	0.00	30.208 
18:35	62.7	62.7	62.7	41	38.7	1	4	90	0.00	30.208 
18:40	62.6	62.6	62.6	42	39.2	1	4	90	0.00	30.208 
18:45	62.6	62.6	62.6	43	39.8	1	4	112	0.00	30.194 
18:50	62.6	62.6	62.6	42	39.2	2	9	68	0.00	30.194 
18:55	62.6	62.6	62.6	42	39.2	1	4	68	0.00	30.194 
19:00	62.7	62.7	62.7	44	40.5	0	3	68	0.00	30.190 
19:05	62.7	62.7	62.7	43	39.9	0	2	68	0.00	30.190 
19:10	62.9	62.9	62.9	43	40.1	0	3	90	0.00	30.190 
19:15	62.9	62.9	62.9	44	40.6	0	2	112	0.00	30.185 
19:20	62.7	62.7	62.7	43	39.9	0	3	112	0.00	30.185 
19:25	62.7	62.7	62.7	44	40.5	1	5	112	0.00	30.185 
19:30	62.7	62.7	62.7	43	39.9	1	3	112	0.00	30.186 
19:35	62.6	62.6	62.6	44	40.4	0	2	112	0.00	30.186 
19:40	62.6	62.6	62.6	45	41.0	0	1	112	0.00	30.186 
19:45	62.6	62.6	62.6	44	40.4	0	3	112	0.00	30.182 
19:50	62.4	62.4	62.4	44	40.2	0	3	112	0.00	30.182 
19:55	62.4	62.4	62.4	44	40.2	0	2	112	0.00	30.182 
20:00	62.3	62.3	62.3	45	40.7	0	2	112	0.00	30.174 
20:05	62.1	62.1	62.1	45	40.5	0	1	112	0.00	30.174 
20:10	62.0	62.0	62.0	45	40.4	0	2	112	0.00	30.174 
20:15	62.0	62.0	62.0	46	41.0	0	3	112	0.00	30.165 
20:20	61.6	61.6	61.6	46	40.6	1	4	112	0.00	30.165 
20:25	61.6	61.6	61.6	47	41.2	0	1	112	0.00	30.165 
20:30	61.5	61.5	61.5	47	41.1	0	1	112	0.00	30.159 
20:35	61.3	61.3	61.3	48	41.4	0	1	112	0.00	30.159 
20:40	61.3	61.3	61.3	48	41.4	0	2	112	0.00	30.159 
20:45	61.2	61.2	61.2	49	41.9	0	1	112	0.00	30.149 
20:50	61.0	61.0	61.0	50	42.2	0	0	---	0.00	30.149 
20:55	60.9	60.9	60.9	50	42.1	0	2	112	0.00	30.149 
21:00	60.7	60.7	60.7	50	41.9	0	1	112	0.00	30.150 
21:05	60.5	60.5	60.5	50	41.8	0	2	112	0.00	30.150 
21:10	60.5	60.5	60.5	50	41.8	0	2	112	0.00	30.150 
21:15	60.4	60.4	60.4	51	42.2	0	1	112	0.00	30.149 
21:20	60.4	60.4	60.4	51	42.2	0	2	112	0.00	30.149 
21:25	60.2	60.2	60.2	51	42.0	0	2	112	0.00	30.149 
21:30	60.1	60.1	60.1	52	42.4	1	3	112	0.00	30.135 
21:35	59.9	59.9	59.9	52	42.2	0	2	112	0.00	30.135 
21:40	59.9	59.9	59.9	53	42.7	0	1	112	0.00	30.135 
21:45	59.8	59.8	59.8	54	43.1	0	1	112	0.00	30.136 
21:50	59.8	59.8	59.8	55	43.6	0	1	112	0.00	30.136 
21:55	59.5	59.5	59.5	55	43.3	0	2	112	0.00	30.136 
22:00	59.5	59.5	59.5	55	43.3	0	2	112	0.00	30.135 
22:05	59.3	59.3	59.3	55	43.1	0	1	112	0.00	30.135 
22:10	59.2	59.2	59.2	55	43.0	0	1	112	0.00	30.135 
22:15	59.0	59.0	59.0	56	43.3	0	1	112	0.00	30.137 
22:20	59.0	59.0	59.0	56	43.3	1	2	112	0.00	30.137 
22:25	58.9	58.9	58.9	57	43.7	1	2	112	0.00	30.137 
22:30	58.7	58.7	58.7	57	43.5	0	2	112	0.00	30.136 
22:35	58.7	58.7	58.7	57	43.5	0	1	112	0.00	30.136 
22:40	58.7	58.7	58.7	58	44.0	0	0	---	0.00	30.136 
22:45	58.7	58.7	58.7	57	43.5	0	2	112	0.00	30.139 
22:50	58.7	58.7	58.7	58	44.0	0	1	112	0.00	30.139 
22:55	58.7	58.7	58.7	58	44.0	0	1	112	0.00	30.139 
23:00	58.6	58.6	58.6	58	43.9	0	1	112	0.00	30.138 
23:05	58.6	58.6	58.6	59	44.3	0	2	112	0.00	30.138 
23:10	58.6	58.6	58.6	58	43.9	0	2	112	0.00	30.138 
23:15	58.4	58.4	58.4	59	44.1	0	2	112	0.00	30.134 
23:20	58.4	58.4	58.4	59	44.1	0	1	112	0.00	30.134 
23:25	58.4	58.4	58.4	59	44.1	0	1	112	0.00	30.134 
23:30	58.3	58.3	58.3	59	44.0	0	1	112	0.00	30.134 
23:35	58.3	58.3	58.3	60	44.5	0	1	112	0.00	30.134 
23:40	58.3	58.3	58.3	60	44.5	0	1	112	0.00	30.134 
23:45	58.1	58.1	58.1	61	44.7	0	1	112	0.00	30.133 
23:50	58.1	58.1	58.1	61	44.7	0	0	---	0.00	30.133 
23:55	58.0	58.0	58.0	61	44.6	0	1	112	0.00	30.133 

CoCoRaHS
IN-AL-39
A2 Web Hosting
Creative Commons License
GoDaddy
search engine by freefind advanced

loaded 2018-11-12 19:09:32 • last modified 2010-11-18 10:43:29
Privacy PolicyDisclaimer
• wx.awcolley.com is powered by PmWiki v.2002016 •
• all content (unless otherwise noted) © 2018 A W Colley